Molly Pitcher — WDI3781 — position and weather

sailwx.info

Track history (hours):
 
Tides and Currents Weather Stations Pressure Air Temp Water Temp Dewpoint Dewpoint Depression Visibility Wind Speed Wind Dir Waves Ship Positions

Molly Pitcher

Owner: Port Imperial Ferry Corp, Weehawken, NJ. More information available from US FCC via Universal Licensing System and Coast Guard Vessel Documentation Center.

Last reported at 2018-Jun-20 13:20 UTC. Time now 2018-Jun-20 19:11 UTC.
Position N 40°46' W 074°00'.

Length 33 m; draft 2 m.

Type: Passenger vessel. MMSI: 367691840.

Date/timePositionNaut miles runAvg speedWind from/ knotsBaromVisibWave heightAir tempDewpointWater temp
2018-Jun-20 13:20N 40°46' W 074°00'3 8.8
2018-Jun-20 13:01N 40°43' W 074°01'713.4
2018-Jun-20 12:30N 40°36' W 074°03'6 8.1
2018-Jun-20 11:45N 40°30' W 074°04'729.8
2018-Jun-20 11:31N 40°37' W 074°03'4 8.3
2018-Jun-20 11:01N 40°41' W 074°01'12 1.0
2018-Jun-19 22:47N 40°29' W 074°04'828.9
2018-Jun-19 22:31N 40°37' W 074°03'611.6
2018-Jun-19 22:01N 40°43' W 074°01'1414.2
2018-Jun-19 21:01N 40°29' W 074°04'027.4
2018-Jun-19 21:00N 40°29' W 074°04'1326.6
2018-Jun-19 20:30N 40°42' W 074°00'4 5.4
2018-Jun-19 19:51N 40°46' W 074°00'1 1.8
2018-Jun-19 19:30N 40°46' W 074°01'1 0.1
2018-Jun-19 13:18N 40°46' W 074°00'3 9.5
2018-Jun-19 13:00N 40°43' W 074°01'713.5
2018-Jun-19 12:30N 40°36' W 074°03'7 9.1
2018-Jun-19 11:46N 40°30' W 074°04'829.4
2018-Jun-19 11:31N 40°37' W 074°03'4 7.9
2018-Jun-19 11:01N 40°41' W 074°01'12 0.9
2018-Jun-18 22:47N 40°30' W 074°04'828.1
2018-Jun-18 22:30N 40°37' W 074°03'611.1
2018-Jun-18 22:00N 40°43' W 074°02'1413.5
2018-Jun-18 21:00N 40°29' W 074°04'1326.9
2018-Jun-18 20:30N 40°42' W 074°00'3 6.9
2018-Jun-18 20:01N 40°46' W 074°00'0 0.1
2018-Jun-18 13:28N 40°46' W 074°01'4 7.9
2018-Jun-18 13:01N 40°42' W 074°01'1018.1
2018-Jun-18 12:28N 40°33' W 074°04'3 5.4
2018-Jun-18 11:50N 40°29' W 074°04'928.1
2018-Jun-18 11:31N 40°38' W 074°03'3 6.7
2018-Jun-18 11:00N 40°41' W 074°01'1326.3
2018-Jun-18 10:31N 40°28' W 074°04'2 4.7
2018-Jun-18 10:00N 40°26' W 074°05'  
2018-Jun-15 22:51N 40°27' W 074°05'1028.5
2018-Jun-15 22:31N 40°36' W 074°03'713.6
2018-Jun-15 22:00N 40°43' W 074°01'1211.3
2018-Jun-15 20:56N 40°31' W 074°04'1227.3
2018-Jun-15 20:30N 40°42' W 074°00'3 4.7
2018-Jun-15 19:46N 40°46' W 074°00'0 0.0
2018-Jun-15 13:14N 40°46' W 074°00'313.5
2018-Jun-15 13:00N 40°43' W 074°02'5 9.7
2018-Jun-15 12:30N 40°38' W 074°03'10 0.7
2018-Jun-14 22:48N 40°29' W 074°04'827.8
2018-Jun-14 22:31N 40°36' W 074°03'713.4
2018-Jun-14 22:00N 40°43' W 074°01'1414.4
2018-Jun-14 21:01N 40°29' W 074°05'228.9
2018-Jun-14 20:57N 40°31' W 074°05'1227.1
2018-Jun-14 20:30N 40°42' W 074°00'3 5.6
2018-Jun-14 19:54N 40°46' W 074°00'0 0.0
2018-Jun-14 13:15N 40°46' W 074°00'312.7
2018-Jun-14 13:00N 40°43' W 074°02'611.3
2018-Jun-14 12:30N 40°37' W 074°03'912.6
2018-Jun-14 11:48N 40°28' W 074°05'828.2
2018-Jun-14 11:31N 40°36' W 074°03'612.0
2018-Jun-14 11:01N 40°42' W 074°00'13 1.1
2018-Jun-13 22:49N 40°29' W 074°04'826.7
2018-Jun-13 22:30N 40°37' W 074°03'611.4
2018-Jun-13 22:00N 40°43' W 074°01'1414.7
2018-Jun-13 21:02N 40°29' W 074°04'228.3
2018-Jun-13 20:57N 40°31' W 074°04'1226.5
2018-Jun-13 20:30N 40°42' W 074°00'3 6.9
2018-Jun-13 20:00N 40°46' W 074°00'0 0.0
2018-Jun-13 13:15N 40°46' W 074°00'312.4
2018-Jun-13 13:01N 40°43' W 074°02'713.6
2018-Jun-13 12:30N 40°36' W 074°03'710.4
2018-Jun-13 11:49N 40°29' W 074°04'927.4
2018-Jun-13 11:31N 40°38' W 074°03'3 7.0
2018-Jun-13 11:01N 40°41' W 074°01'12 1.0
2018-Jun-12 22:50N 40°29' W 074°04'926.6
2018-Jun-12 22:31N 40°38' W 074°03'510.9
2018-Jun-12 22:00N 40°43' W 074°02'1110.4
2018-Jun-12 20:56N 40°32' W 074°04'1124.9
2018-Jun-12 20:31N 40°42' W 074°00'3 5.2
2018-Jun-12 19:50N 40°46' W 074°00'0 0.0
2018-Jun-12 13:17N 40°46' W 074°00'311.1
2018-Jun-12 13:00N 40°43' W 074°02'612.0
2018-Jun-12 12:30N 40°37' W 074°03'1120.4
2018-Jun-12 11:58N 40°26' W 074°05'1123.3
2018-Jun-12 11:30N 40°37' W 074°03'510.8
2018-Jun-12 11:01N 40°42' W 074°00'1428.0
2018-Jun-12 10:30N 40°28' W 074°04'4 0.4
2018-Jun-11 22:45N 40°32' W 074°04'726.4
2018-Jun-11 22:29N 40°39' W 074°03'4 7.5
2018-Jun-11 21:55N 40°43' W 074°02'7 6.5
2018-Jun-11 20:47N 40°35' W 074°03'718.5
2018-Jun-11 20:24N 40°42' W 074°00'3 7.9
2018-Jun-11 19:58N 40°46' W 074°00'0 0.0
2018-Jun-11 13:19N 40°46' W 074°00'3 9.1
2018-Jun-11 13:00N 40°43' W 074°01'8 5.6
2018-Jun-11 11:40N 40°36' W 074°03'427.3
2018-Jun-11 11:30N 40°40' W 074°03'2 3.2
2018-Jun-11 11:01N 40°38' W 074°02'  
Track history (hours):
 
Tides and Currents Weather Stations Pressure Air Temp Water Temp Dewpoint Dewpoint Depression Visibility Wind Speed Wind Dir Waves Ship Positions

Molly Pitcher

Owner: Port Imperial Ferry Corp, Weehawken, NJ. More information available from US FCC via Universal Licensing System and Coast Guard Vessel Documentation Center.

Last reported at 2018-Jun-20 13:20 UTC. Time now 2018-Jun-20 19:11 UTC.
Position N 40°46' W 074°00'.

Length 33 m; draft 2 m.

Type: Passenger vessel. MMSI: 367691840.

Date/timePositionNaut miles runAvg speedWind from/ knotsBaromVisibWave heightAir tempDewpointWater temp
2018-Jun-20 13:20N 40°46' W 074°00'3 8.8
2018-Jun-20 13:01N 40°43' W 074°01'713.4
2018-Jun-20 12:30N 40°36' W 074°03'6 8.1
2018-Jun-20 11:45N 40°30' W 074°04'729.8
2018-Jun-20 11:31N 40°37' W 074°03'4 8.3
2018-Jun-20 11:01N 40°41' W 074°01'12 1.0
2018-Jun-19 22:47N 40°29' W 074°04'828.9
2018-Jun-19 22:31N 40°37' W 074°03'611.6
2018-Jun-19 22:01N 40°43' W 074°01'1414.2
2018-Jun-19 21:01N 40°29' W 074°04'027.4
2018-Jun-19 21:00N 40°29' W 074°04'1326.6
2018-Jun-19 20:30N 40°42' W 074°00'4 5.4
2018-Jun-19 19:51N 40°46' W 074°00'1 1.8
2018-Jun-19 19:30N 40°46' W 074°01'1 0.1
2018-Jun-19 13:18N 40°46' W 074°00'3 9.5
2018-Jun-19 13:00N 40°43' W 074°01'713.5
2018-Jun-19 12:30N 40°36' W 074°03'7 9.1
2018-Jun-19 11:46N 40°30' W 074°04'829.4
2018-Jun-19 11:31N 40°37' W 074°03'4 7.9
2018-Jun-19 11:01N 40°41' W 074°01'12 0.9
2018-Jun-18 22:47N 40°30' W 074°04'828.1
2018-Jun-18 22:30N 40°37' W 074°03'611.1
2018-Jun-18 22:00N 40°43' W 074°02'1413.5
2018-Jun-18 21:00N 40°29' W 074°04'1326.9
2018-Jun-18 20:30N 40°42' W 074°00'3 6.9
2018-Jun-18 20:01N 40°46' W 074°00'0 0.1
2018-Jun-18 13:28N 40°46' W 074°01'4 7.9
2018-Jun-18 13:01N 40°42' W 074°01'1018.1
2018-Jun-18 12:28N 40°33' W 074°04'3 5.4
2018-Jun-18 11:50N 40°29' W 074°04'928.1
2018-Jun-18 11:31N 40°38' W 074°03'3 6.7
2018-Jun-18 11:00N 40°41' W 074°01'1326.3
2018-Jun-18 10:31N 40°28' W 074°04'2 4.7
2018-Jun-18 10:00N 40°26' W 074°05'  
2018-Jun-15 22:51N 40°27' W 074°05'1028.5
2018-Jun-15 22:31N 40°36' W 074°03'713.6
2018-Jun-15 22:00N 40°43' W 074°01'1211.3
2018-Jun-15 20:56N 40°31' W 074°04'1227.3
2018-Jun-15 20:30N 40°42' W 074°00'3 4.7
2018-Jun-15 19:46N 40°46' W 074°00'0 0.0
2018-Jun-15 13:14N 40°46' W 074°00'313.5
2018-Jun-15 13:00N 40°43' W 074°02'5 9.7
2018-Jun-15 12:30N 40°38' W 074°03'10 0.7
2018-Jun-14 22:48N 40°29' W 074°04'827.8
2018-Jun-14 22:31N 40°36' W 074°03'713.4
2018-Jun-14 22:00N 40°43' W 074°01'1414.4
2018-Jun-14 21:01N 40°29' W 074°05'228.9
2018-Jun-14 20:57N 40°31' W 074°05'1227.1
2018-Jun-14 20:30N 40°42' W 074°00'3 5.6
2018-Jun-14 19:54N 40°46' W 074°00'0 0.0
2018-Jun-14 13:15N 40°46' W 074°00'312.7
2018-Jun-14 13:00N 40°43' W 074°02'611.3
2018-Jun-14 12:30N 40°37' W 074°03'912.6
2018-Jun-14 11:48N 40°28' W 074°05'828.2
2018-Jun-14 11:31N 40°36' W 074°03'612.0
2018-Jun-14 11:01N 40°42' W 074°00'13 1.1
2018-Jun-13 22:49N 40°29' W 074°04'826.7
2018-Jun-13 22:30N 40°37' W 074°03'611.4
2018-Jun-13 22:00N 40°43' W 074°01'1414.7
2018-Jun-13 21:02N 40°29' W 074°04'228.3
2018-Jun-13 20:57N 40°31' W 074°04'1226.5
2018-Jun-13 20:30N 40°42' W 074°00'3 6.9
2018-Jun-13 20:00N 40°46' W 074°00'0 0.0
2018-Jun-13 13:15N 40°46' W 074°00'312.4
2018-Jun-13 13:01N 40°43' W 074°02'713.6
2018-Jun-13 12:30N 40°36' W 074°03'710.4
2018-Jun-13 11:49N 40°29' W 074°04'927.4
2018-Jun-13 11:31N 40°38' W 074°03'3 7.0
2018-Jun-13 11:01N 40°41' W 074°01'12 1.0
2018-Jun-12 22:50N 40°29' W 074°04'926.6
2018-Jun-12 22:31N 40°38' W 074°03'510.9
2018-Jun-12 22:00N 40°43' W 074°02'1110.4
2018-Jun-12 20:56N 40°32' W 074°04'1124.9
2018-Jun-12 20:31N 40°42' W 074°00'3 5.2
2018-Jun-12 19:50N 40°46' W 074°00'0 0.0
2018-Jun-12 13:17N 40°46' W 074°00'311.1
2018-Jun-12 13:00N 40°43' W 074°02'612.0
2018-Jun-12 12:30N 40°37' W 074°03'1120.4
2018-Jun-12 11:58N 40°26' W 074°05'1123.3
2018-Jun-12 11:30N 40°37' W 074°03'510.8
2018-Jun-12 11:01N 40°42' W 074°00'1428.0
2018-Jun-12 10:30N 40°28' W 074°04'4 0.4
2018-Jun-11 22:45N 40°32' W 074°04'726.4
2018-Jun-11 22:29N 40°39' W 074°03'4 7.5
2018-Jun-11 21:55N 40°43' W 074°02'7 6.5
2018-Jun-11 20:47N 40°35' W 074°03'718.5
2018-Jun-11 20:24N 40°42' W 074°00'3 7.9
2018-Jun-11 19:58N 40°46' W 074°00'0 0.0
2018-Jun-11 13:19N 40°46' W 074°00'3 9.1
2018-Jun-11 13:00N 40°43' W 074°01'8 5.6
2018-Jun-11 11:40N 40°36' W 074°03'427.3
2018-Jun-11 11:30N 40°40' W 074°03'2 3.2
2018-Jun-11 11:01N 40°38' W 074°02'  

Dump ship's entire track history